createdAt,value
2023-03-22T00:00:18.197Z,17998.6152
2023-03-22T00:01:19.606Z,18004.3086
2023-03-22T00:02:21.054Z,17990.6914
2023-03-22T00:03:22.510Z,17983.1543
2023-03-22T00:04:23.861Z,17977.8457
2023-03-22T00:05:25.289Z,17971.8457
2023-03-22T00:06:26.724Z,17961.1543
2023-03-22T00:07:28.153Z,17964.8457
2023-03-22T00:08:29.558Z,17973.7695
2023-03-22T00:09:30.974Z,17975.3848
2023-03-22T00:10:32.398Z,17980.1543
2023-03-22T00:11:33.806Z,17977.4609
2023-03-22T00:12:35.254Z,17978.8457
2023-03-22T00:13:36.681Z,17972.5391
2023-03-22T00:14:38.106Z,17960.5391
2023-03-22T00:15:39.560Z,17936.4609
2023-03-22T00:16:40.934Z,17929.8457
2023-03-22T00:17:42.344Z,17930.0000
2023-03-22T00:18:43.767Z,17924.5391
2023-03-22T00:19:45.202Z,17913.3848
2023-03-22T00:20:46.618Z,17905.4609
2023-03-22T00:21:48.034Z,17908.9238
2023-03-22T00:22:49.460Z,17908.6914
2023-03-22T00:23:50.886Z,17910.0000
2023-03-22T00:24:52.322Z,17907.8457
2023-03-22T00:25:53.718Z,17907.2305
2023-03-22T00:26:55.156Z,17907.3848
2023-03-22T00:27:56.576Z,17901.8457
2023-03-22T00:28:58.016Z,17900.3848
2023-03-22T00:29:59.547Z,17903.9238
2023-03-22T00:31:00.948Z,17904.0762
2023-03-22T00:32:02.291Z,17903.9238
2023-03-22T00:33:03.726Z,17900.3848
2023-03-22T00:34:05.132Z,17873.1543
2023-03-22T00:35:06.574Z,17847.6914
2023-03-22T00:36:07.988Z,17856.6914
2023-03-22T00:37:09.432Z,17869.5391
2023-03-22T00:38:10.841Z,17877.2305
2023-03-22T00:39:12.263Z,17884.9238
2023-03-22T00:40:13.676Z,17880.8457
2023-03-22T00:41:15.115Z,17877.2305
2023-03-22T00:42:16.528Z,17876.3086
2023-03-22T00:43:17.966Z,17878.3848
2023-03-22T00:44:19.377Z,17876.6152
2023-03-22T00:45:20.823Z,17874.3086
2023-03-22T00:46:22.320Z,17878.7695
2023-03-22T00:47:23.667Z,17882.6914
2023-03-22T00:48:25.111Z,17881.9238
2023-03-22T00:49:26.514Z,17880.2305
2023-03-22T00:50:27.926Z,17880.8457
2023-03-22T00:51:29.364Z,17876.9238
2023-03-22T00:52:30.767Z,17869.2305
2023-03-22T00:53:32.195Z,17865.6152
2023-03-22T00:54:33.619Z,17868.9238
2023-03-22T00:55:35.051Z,17871.2305
2023-03-22T00:56:36.488Z,17863.9238
2023-03-22T00:57:37.952Z,17851.8457
2023-03-22T00:58:39.317Z,17846.7695
2023-03-22T00:59:40.757Z,17841.8457
2023-03-22T01:00:42.518Z,17839.5391
2023-03-22T01:01:43.602Z,17850.3848
2023-03-22T01:02:45.038Z,17855.0000
2023-03-22T01:03:46.489Z,17857.4609
2023-03-22T01:04:47.887Z,17857.4609
2023-03-22T01:05:49.409Z,17857.3086
2023-03-22T01:06:50.820Z,17853.0000
2023-03-22T01:07:52.239Z,17852.3848
2023-03-22T01:08:53.672Z,17850.7695
2023-03-22T01:09:55.099Z,17855.5391
2023-03-22T01:10:56.521Z,17853.0000
2023-03-22T01:11:57.928Z,17857.3086
2023-03-22T01:12:59.360Z,17856.3086
2023-03-22T01:14:00.794Z,17857.1543
2023-03-22T01:15:02.242Z,17856.5391
2023-03-22T01:16:03.661Z,17859.4609
2023-03-22T01:17:05.077Z,17858.2305
2023-03-22T01:18:06.508Z,17858.3848
2023-03-22T01:19:07.918Z,17853.9238
2023-03-22T01:20:09.355Z,17856.1543
2023-03-22T01:21:10.766Z,17857.7695
2023-03-22T01:22:12.195Z,17857.0762
2023-03-22T01:23:13.631Z,17859.9238
2023-03-22T01:24:15.039Z,17857.0762
2023-03-22T01:25:16.448Z,17858.3086
2023-03-22T01:26:17.903Z,17857.1543
2023-03-22T01:27:19.306Z,17844.0000
2023-03-22T01:28:20.761Z,17839.3086
2023-03-22T01:29:22.161Z,17832.3848
2023-03-22T01:30:23.607Z,17832.7695
2023-03-22T01:31:25.007Z,17835.1543
2023-03-22T01:32:26.443Z,17838.1543
2023-03-22T01:33:27.873Z,17842.1543
2023-03-22T01:34:29.301Z,17840.3848
2023-03-22T01:35:30.781Z,17837.7695
2023-03-22T01:36:32.158Z,17835.8457
2023-03-22T01:37:33.593Z,17831.8457
2023-03-22T01:38:35.041Z,17834.4609
2023-03-22T01:39:36.441Z,17834.9238
2023-03-22T01:40:38.319Z,17828.7695
2023-03-22T01:41:39.289Z,17816.5391
2023-03-22T01:42:40.722Z,17816.2305
2023-03-22T01:43:42.196Z,17818.6152
2023-03-22T01:44:43.579Z,17822.2305
2023-03-22T01:45:45.003Z,17824.0000
2023-03-22T01:46:46.438Z,17828.3848
2023-03-22T01:47:47.846Z,17829.6152
2023-03-22T01:48:49.327Z,17820.1543
2023-03-22T01:49:50.705Z,17807.2305
2023-03-22T01:50:52.139Z,17807.7695
2023-03-22T01:51:53.557Z,17805.2305
2023-03-22T01:52:54.988Z,17813.3848
2023-03-22T01:53:56.423Z,17815.6914
2023-03-22T01:54:57.835Z,17817.9238
2023-03-22T01:55:59.260Z,17821.1543
2023-03-22T01:57:00.697Z,17819.9238
2023-03-22T01:58:02.101Z,17818.6914
2023-03-22T01:59:03.537Z,17817.3086
2023-03-22T02:00:04.945Z,17820.3086
2023-03-22T02:01:06.469Z,17818.1543
2023-03-22T02:02:07.797Z,17824.6914
2023-03-22T02:03:09.220Z,17824.3086
2023-03-22T02:04:10.656Z,17820.9238
2023-03-22T02:05:12.090Z,17821.9238
2023-03-22T02:06:13.515Z,17822.3848
2023-03-22T02:07:14.916Z,17822.0000
2023-03-22T02:08:16.345Z,17824.7695
2023-03-22T02:09:17.783Z,17826.6152
2023-03-22T02:10:19.201Z,17828.0000
2023-03-22T02:11:20.648Z,17829.6152
2023-03-22T02:12:22.055Z,17827.0762
2023-03-22T02:13:23.504Z,17827.9238
2023-03-22T02:14:27.191Z,17825.3086
2023-03-22T02:15:26.311Z,17820.1543
2023-03-22T02:16:27.752Z,17815.3848
2023-03-22T02:17:29.174Z,17813.6152
2023-03-22T02:18:30.568Z,17823.8457
2023-03-22T02:19:31.986Z,17821.8457
2023-03-22T02:20:33.393Z,17823.1543
2023-03-22T02:21:34.812Z,17824.5391
2023-03-22T02:22:36.210Z,17825.1543
2023-03-22T02:23:37.682Z,17826.6914
2023-03-22T02:24:39.073Z,17827.5391
2023-03-22T02:25:40.501Z,17821.8457
2023-03-22T02:26:41.913Z,17827.5391
2023-03-22T02:27:43.341Z,17827.5391
2023-03-22T02:28:44.828Z,17829.5391
2023-03-22T02:29:46.194Z,17827.6914
2023-03-22T02:30:47.606Z,17825.7695
2023-03-22T02:31:49.047Z,17828.3848
2023-03-22T02:32:50.437Z,17822.6914
2023-03-22T02:33:51.871Z,17825.6152
2023-03-22T02:34:53.274Z,17829.0000
2023-03-22T02:35:54.716Z,17829.6152
2023-03-22T02:36:56.124Z,17829.7695
2023-03-22T02:37:57.579Z,17831.3848
2023-03-22T02:38:58.961Z,17833.5391
2023-03-22T02:40:00.374Z,17832.2305
2023-03-22T02:41:01.797Z,17829.0762
2023-03-22T02:42:03.242Z,17835.2305
2023-03-22T02:43:04.632Z,17834.3848
2023-03-22T02:44:06.081Z,17833.1543
2023-03-22T02:45:07.472Z,17835.6914
2023-03-22T02:46:09.020Z,17832.6914
2023-03-22T02:47:10.318Z,17833.0000
2023-03-22T02:48:11.805Z,17836.6152
2023-03-22T02:49:13.193Z,17830.6914
2023-03-22T02:50:14.588Z,17822.1543
2023-03-22T02:51:15.996Z,17820.4609
2023-03-22T02:52:17.437Z,17823.1543
2023-03-22T02:53:18.849Z,17825.0762
2023-03-22T02:54:20.307Z,17829.0000
2023-03-22T02:55:21.675Z,17834.0762
2023-03-22T02:56:23.136Z,17832.2305
2023-03-22T02:57:24.528Z,17834.6914
2023-03-22T02:58:25.964Z,17834.7695
2023-03-22T02:59:27.373Z,17832.2305
2023-03-22T03:00:28.844Z,17832.8457
2023-03-22T03:01:30.295Z,17833.5391
2023-03-22T03:02:31.684Z,17832.3086
2023-03-22T03:03:33.071Z,17834.7695
2023-03-22T03:04:34.507Z,17835.0000
2023-03-22T03:05:35.906Z,17836.2305
2023-03-22T03:06:37.347Z,17837.3848
2023-03-22T03:07:38.774Z,17840.3848
2023-03-22T03:08:40.188Z,17842.4609
2023-03-22T03:09:41.623Z,17839.4609
2023-03-22T03:10:43.049Z,17841.6914
2023-03-22T03:11:44.472Z,17841.4609
2023-03-22T03:12:45.891Z,17843.3848
2023-03-22T03:13:47.307Z,17846.6152
2023-03-22T03:14:48.741Z,17845.3848
2023-03-22T03:15:50.155Z,17843.7695
2023-03-22T03:16:51.591Z,17847.6914
2023-03-22T03:17:52.999Z,17845.1543
2023-03-22T03:18:54.413Z,17848.4609
2023-03-22T03:19:55.830Z,17847.9238
2023-03-22T03:20:57.269Z,17848.7695
2023-03-22T03:21:58.680Z,17848.3086
2023-03-22T03:23:00.112Z,17854.9238
2023-03-22T03:24:01.544Z,17850.6914
2023-03-22T03:25:02.938Z,17854.9238
2023-03-22T03:26:04.352Z,17853.9238
2023-03-22T03:27:05.775Z,17853.5391
2023-03-22T03:28:07.238Z,17854.3086
2023-03-22T03:29:08.627Z,17855.3086
2023-03-22T03:30:10.079Z,17854.0762
2023-03-22T03:31:11.544Z,17855.3086
2023-03-22T03:32:12.905Z,17857.6152
2023-03-22T03:33:14.421Z,17858.6152
2023-03-22T03:34:15.757Z,17854.6914
2023-03-22T03:35:17.203Z,17858.0762
2023-03-22T03:36:18.596Z,17858.7695
2023-03-22T03:37:20.015Z,17859.2305
2023-03-22T03:38:21.442Z,17862.0762
2023-03-22T03:39:22.845Z,17857.2305
2023-03-22T03:40:24.280Z,17859.2305
2023-03-22T03:41:25.697Z,17859.0000
2023-03-22T03:42:27.121Z,17862.3848
2023-03-22T03:43:28.554Z,17859.3848
2023-03-22T03:44:29.988Z,17861.9238
2023-03-22T03:45:31.405Z,17860.2305
2023-03-22T03:46:32.829Z,17864.6914
2023-03-22T03:47:34.248Z,17863.3848
2023-03-22T03:48:35.687Z,17861.1543
2023-03-22T03:49:37.091Z,17867.3086
2023-03-22T03:50:38.868Z,17865.2305
2023-03-22T03:51:39.916Z,17866.9238
2023-03-22T03:52:41.376Z,17866.3086
2023-03-22T03:53:42.767Z,17868.1543
2023-03-22T03:54:44.204Z,17869.7695
2023-03-22T03:55:45.610Z,17868.9238
2023-03-22T03:56:47.033Z,17870.4609
2023-03-22T03:57:48.453Z,17868.8457
2023-03-22T03:58:49.876Z,17868.3086
2023-03-22T03:59:51.316Z,17869.6152
2023-03-22T04:00:52.751Z,17868.3848
2023-03-22T04:01:54.238Z,17873.4609
2023-03-22T04:02:55.576Z,17871.8457
2023-03-22T04:03:57.017Z,17872.8457
2023-03-22T04:04:58.431Z,17876.1543
2023-03-22T04:05:59.971Z,17877.6152
2023-03-22T04:07:01.273Z,17875.1543
2023-03-22T04:08:02.691Z,17876.8457
2023-03-22T04:09:04.138Z,17874.7695
2023-03-22T04:10:05.570Z,17881.0762
2023-03-22T04:11:06.976Z,17877.6914
2023-03-22T04:12:08.403Z,17879.0000
2023-03-22T04:13:09.794Z,17876.0000
2023-03-22T04:14:11.209Z,17884.1543
2023-03-22T04:15:12.638Z,17883.5391
2023-03-22T04:16:14.114Z,17881.6152
2023-03-22T04:17:15.485Z,17881.3086
2023-03-22T04:18:16.896Z,17883.6914
2023-03-22T04:19:18.317Z,17887.3086
2023-03-22T04:20:19.753Z,17888.1543
2023-03-22T04:21:21.212Z,17886.3086
2023-03-22T04:22:22.587Z,17891.3848
2023-03-22T04:23:24.033Z,17892.6914
2023-03-22T04:24:25.476Z,17888.7695
2023-03-22T04:25:26.859Z,17890.0000
2023-03-22T04:26:28.289Z,17895.2305
2023-03-22T04:27:29.714Z,17895.6152
2023-03-22T04:28:31.119Z,17899.2305
2023-03-22T04:29:32.546Z,17891.8457
2023-03-22T04:30:33.970Z,17893.6152
2023-03-22T04:31:35.395Z,17886.7695
2023-03-22T04:32:36.819Z,17868.9238
2023-03-22T04:33:38.251Z,17873.1543
2023-03-22T04:34:39.679Z,17896.3086
2023-03-22T04:35:41.154Z,17912.6152
2023-03-22T04:36:42.526Z,17918.5391
2023-03-22T04:37:43.949Z,17937.1543
2023-03-22T04:38:45.367Z,17942.2305
2023-03-22T04:39:46.801Z,17950.3848
2023-03-22T04:40:48.215Z,17968.3086
2023-03-22T04:41:49.635Z,17995.2305
2023-03-22T04:42:51.055Z,18023.6914
2023-03-22T04:43:52.520Z,18054.1543
2023-03-22T04:44:53.894Z,18047.3086
2023-03-22T04:45:55.365Z,18077.3086
2023-03-22T04:46:56.735Z,18934.0000
2023-03-22T04:47:58.169Z,19465.1543
2023-03-22T04:48:59.570Z,19620.6152
2023-03-22T04:50:01.006Z,19688.6152
2023-03-22T04:51:02.424Z,19729.6152
2023-03-22T04:52:03.836Z,19664.3086
2023-03-22T04:53:05.261Z,19724.0762
2023-03-22T04:54:06.702Z,19432.6152
2023-03-22T04:55:08.121Z,18825.3848
2023-03-22T04:56:09.531Z,18638.4609
2023-03-22T04:57:10.960Z,18631.3086
2023-03-22T04:58:12.370Z,18608.3086
2023-03-22T04:59:13.782Z,18588.7695
2023-03-22T05:00:15.288Z,18578.3086
